createdAt,value
2022-12-17T00:01:21.178Z,101870.09
2022-12-17T00:04:07.497Z,101868.72
2022-12-17T00:06:53.743Z,101872.66
2022-12-17T00:09:47.118Z,101877.88
2022-12-17T00:12:36.077Z,101869.16
2022-12-17T00:15:21.608Z,101866.56
2022-12-17T00:18:08.851Z,101878.47
2022-12-17T00:20:55.741Z,101874.47
2022-12-17T00:23:42.534Z,101877.31
2022-12-17T00:26:28.632Z,101877.88
2022-12-17T00:29:13.656Z,101889.50
2022-12-17T00:31:59.751Z,101904.00
2022-12-17T00:34:47.318Z,101904.91
2022-12-17T00:37:33.143Z,101907.91
2022-12-17T00:40:19.257Z,101907.38
2022-12-17T00:43:05.148Z,101911.09
2022-12-17T00:45:50.987Z,101907.44
2022-12-17T00:48:38.496Z,101904.78
2022-12-17T00:51:25.444Z,101908.28
2022-12-17T00:54:11.512Z,101903.97
2022-12-17T00:56:57.772Z,101904.41
2022-12-17T00:59:43.731Z,101907.44
2022-12-17T01:02:29.729Z,101914.88
2022-12-17T01:05:15.853Z,101921.56
2022-12-17T01:08:03.436Z,101917.38
2022-12-17T01:10:49.261Z,101925.31
2022-12-17T01:13:36.056Z,101919.97
2022-12-17T01:16:23.759Z,101927.19
2022-12-17T01:19:10.276Z,101919.53
2022-12-17T01:21:56.784Z,101932.09
2022-12-17T01:24:44.854Z,101932.44
2022-12-17T01:27:30.978Z,101936.94
2022-12-17T01:30:17.085Z,101938.28
2022-12-17T01:33:03.375Z,101944.97
2022-12-17T01:35:49.489Z,101941.84
2022-12-17T01:38:38.008Z,101942.59
2022-12-17T01:41:25.475Z,101940.69
2022-12-17T01:44:11.543Z,101940.47
2022-12-17T01:47:02.793Z,101937.63
2022-12-17T01:49:49.196Z,101935.16
2022-12-17T01:52:35.870Z,101943.59
2022-12-17T01:55:22.609Z,101961.53
2022-12-17T01:58:10.277Z,101954.91
2022-12-17T02:00:56.368Z,101967.06
2022-12-17T02:03:42.490Z,101965.88
2022-12-17T02:06:35.179Z,101961.56
2022-12-17T02:09:30.064Z,101960.63
2022-12-17T02:12:25.515Z,101962.41
2022-12-17T02:15:29.439Z,101964.41
2022-12-17T02:18:19.455Z,101964.66
2022-12-17T02:21:07.337Z,101957.03
2022-12-17T02:24:01.083Z,101967.88
2022-12-17T02:26:54.559Z,101967.00
2022-12-17T02:29:53.818Z,101961.53
2022-12-17T02:32:44.220Z,101968.06
2022-12-17T02:35:33.918Z,101967.22
2022-12-17T02:38:25.255Z,101968.00
2022-12-17T02:41:11.269Z,101965.22
2022-12-17T02:43:58.606Z,101968.53
2022-12-17T02:46:44.539Z,101973.97
2022-12-17T02:49:30.319Z,101978.06
2022-12-17T02:52:12.910Z,101976.59
2022-12-17T02:54:59.094Z,101985.66
2022-12-17T02:57:50.878Z,101979.16
2022-12-17T03:00:41.179Z,101978.59
2022-12-17T03:03:27.273Z,101983.47
2022-12-17T03:06:13.481Z,101986.91
2022-12-17T03:08:55.899Z,101992.94
2022-12-17T03:11:46.204Z,101994.22
2022-12-17T03:14:37.387Z,102001.72
2022-12-17T03:17:24.522Z,101992.88
2022-12-17T03:20:10.354Z,101990.84
2022-12-17T03:22:52.774Z,101991.81
2022-12-17T03:25:38.964Z,101990.81
2022-12-17T03:28:25.864Z,101988.16
2022-12-17T03:31:11.995Z,101996.63
2022-12-17T03:33:59.549Z,101999.25
2022-12-17T03:36:45.537Z,101995.41
2022-12-17T03:39:31.523Z,102000.13
2022-12-17T03:42:17.963Z,102005.75
2022-12-17T03:45:03.823Z,102011.50
2022-12-17T03:47:50.000Z,102008.50
2022-12-17T03:50:37.380Z,102011.25
2022-12-17T03:53:24.164Z,102019.81
2022-12-17T03:56:10.116Z,102017.28
2022-12-17T03:58:55.964Z,102014.31
2022-12-17T04:01:41.847Z,102012.66
2022-12-17T04:04:27.966Z,102012.00
2022-12-17T04:07:15.521Z,102020.94
2022-12-17T04:10:12.872Z,102019.75
2022-12-17T04:12:58.871Z,102021.94
2022-12-17T04:15:46.570Z,102028.56
2022-12-17T04:18:32.713Z,102024.41
2022-12-17T04:21:18.831Z,102029.44
2022-12-17T04:24:06.312Z,102035.81
2022-12-17T04:26:52.015Z,102046.56
2022-12-17T04:29:38.647Z,102044.03
2022-12-17T04:32:24.332Z,102040.59
2022-12-17T04:35:10.468Z,102042.41
2022-12-17T04:37:56.400Z,102036.91
2022-12-17T04:40:43.854Z,102028.13
2022-12-17T04:43:32.477Z,102040.50
2022-12-17T04:46:18.952Z,102049.94
2022-12-17T04:49:05.104Z,102048.81
2022-12-17T04:51:51.290Z,102042.81
2022-12-17T04:54:37.163Z,102058.91
2022-12-17T04:57:24.249Z,102059.34
2022-12-17T05:00:10.352Z,102060.78
2022-12-17T05:02:56.416Z,102054.66
2022-12-17T05:05:42.481Z,102057.84
2022-12-17T05:08:28.485Z,102062.47
2022-12-17T05:11:14.499Z,102062.81
2022-12-17T05:14:01.896Z,102062.97
2022-12-17T05:16:48.110Z,102065.59
2022-12-17T05:19:33.931Z,102064.34
2022-12-17T05:22:19.835Z,102069.25
2022-12-17T05:25:06.049Z,102056.91
2022-12-17T05:27:51.703Z,102060.38
2022-12-17T05:30:38.912Z,102075.97
2022-12-17T05:33:24.773Z,102078.66
2022-12-17T05:36:10.686Z,102073.25
2022-12-17T05:38:56.773Z,102076.44
2022-12-17T05:41:42.858Z,102084.34
2022-12-17T05:44:28.706Z,102077.56
2022-12-17T05:47:16.073Z,102084.66
2022-12-17T05:50:01.914Z,102083.94
2022-12-17T05:52:48.261Z,102084.38
2022-12-17T05:55:34.289Z,102080.91
2022-12-17T05:58:24.728Z,102082.00
2022-12-17T06:01:14.700Z,102090.94
2022-12-17T06:04:02.040Z,102092.00
2022-12-17T06:06:56.873Z,102092.75
2022-12-17T06:09:42.871Z,102090.78
2022-12-17T06:12:40.416Z,102091.16
2022-12-17T06:15:27.087Z,102100.88
2022-12-17T06:18:16.897Z,102095.91
2022-12-17T06:21:04.612Z,102103.00
2022-12-17T06:23:50.394Z,102113.41
2022-12-17T06:26:36.393Z,102100.25
2022-12-17T06:29:22.435Z,102109.53
2022-12-17T06:32:19.726Z,102108.47
2022-12-17T06:35:06.019Z,102117.81
2022-12-17T06:37:53.537Z,102118.03
2022-12-17T06:40:39.408Z,102116.63
2022-12-17T06:43:25.211Z,102129.69
2022-12-17T06:46:11.448Z,102124.63
2022-12-17T06:48:57.166Z,102123.94
2022-12-17T06:51:43.286Z,102126.50
2022-12-17T06:54:30.748Z,102132.84
2022-12-17T06:57:16.590Z,102131.91
2022-12-17T07:00:02.685Z,102132.94
2022-12-17T07:02:48.888Z,102122.41
2022-12-17T07:05:35.036Z,102136.06
2022-12-17T07:08:21.156Z,102150.00
2022-12-17T07:11:08.730Z,102152.47
2022-12-17T07:13:54.618Z,102153.34
2022-12-17T07:16:40.524Z,102154.69
2022-12-17T07:19:27.710Z,102150.63
2022-12-17T07:22:14.361Z,102156.31
2022-12-17T07:25:00.561Z,102155.63
2022-12-17T07:27:47.866Z,102171.13
2022-12-17T07:30:33.904Z,102166.38
2022-12-17T07:33:21.385Z,102179.13
2022-12-17T07:36:07.226Z,102168.91
2022-12-17T07:38:53.515Z,102182.13
2022-12-17T07:41:39.608Z,102175.72
2022-12-17T07:44:27.202Z,102181.06
2022-12-17T07:47:13.447Z,102178.63
2022-12-17T07:49:59.138Z,102186.59
2022-12-17T07:52:45.005Z,102200.66
2022-12-17T07:55:31.009Z,102204.81
2022-12-17T07:58:18.139Z,102201.91
2022-12-17T08:01:05.588Z,102209.09
2022-12-17T08:03:51.430Z,102221.03
2022-12-17T08:06:37.369Z,102210.88
2022-12-17T08:09:23.869Z,102218.34
2022-12-17T08:12:24.243Z,102216.38
2022-12-17T08:15:10.505Z,102219.22
2022-12-17T08:17:57.748Z,102232.41
2022-12-17T08:20:43.973Z,102234.72
2022-12-17T08:23:26.464Z,102228.72
2022-12-17T08:26:12.303Z,102241.69
2022-12-17T08:28:58.531Z,102230.84
2022-12-17T08:31:44.832Z,102243.88
2022-12-17T08:34:32.256Z,102241.19
2022-12-17T08:37:18.465Z,102251.38
2022-12-17T08:40:04.327Z,102248.44
2022-12-17T08:42:50.041Z,102251.34
2022-12-17T08:45:36.240Z,102255.88
2022-12-17T08:48:32.218Z,102258.97
2022-12-17T08:51:19.512Z,102259.72
2022-12-17T08:54:05.581Z,102252.66
2022-12-17T08:56:51.384Z,102252.91
2022-12-17T08:59:46.704Z,102263.00
2022-12-17T09:02:33.018Z,102265.13
2022-12-17T09:05:18.871Z,102274.22
2022-12-17T09:08:06.118Z,102269.19
2022-12-17T09:10:52.175Z,102279.81
2022-12-17T09:13:38.431Z,102289.47
2022-12-17T09:16:25.380Z,102277.19
2022-12-17T09:19:20.048Z,102293.03
2022-12-17T09:22:06.340Z,102292.84
2022-12-17T09:24:53.739Z,102296.81
2022-12-17T09:27:39.623Z,102293.47
2022-12-17T09:30:26.871Z,102290.63
2022-12-17T09:33:12.663Z,102290.22
2022-12-17T09:35:58.364Z,102292.88
2022-12-17T09:38:44.595Z,102292.41
2022-12-17T09:41:43.674Z,102303.09
2022-12-17T09:44:38.973Z,102305.50
2022-12-17T09:47:39.079Z,102305.81
2022-12-17T09:50:31.836Z,102314.56
2022-12-17T09:53:20.952Z,102323.31
2022-12-17T09:56:09.559Z,102318.56
2022-12-17T09:58:58.987Z,102321.91
2022-12-17T10:01:51.087Z,102315.81
2022-12-17T10:04:51.416Z,102316.38
2022-12-17T10:07:42.262Z,102327.38
2022-12-17T10:10:36.664Z,102330.94
2022-12-17T10:13:29.255Z,102322.81
2022-12-17T10:16:17.178Z,102327.44
2022-12-17T10:19:04.417Z,102326.81
2022-12-17T10:21:52.805Z,102342.66
2022-12-17T10:24:39.086Z,102342.00
2022-12-17T10:27:28.871Z,102332.38
2022-12-17T10:30:15.076Z,102332.09
2022-12-17T10:33:02.210Z,102329.91
2022-12-17T10:35:55.493Z,102334.31
2022-12-17T10:38:43.655Z,102335.63
2022-12-17T10:41:41.075Z,102336.09
2022-12-17T10:44:41.629Z,102339.78
2022-12-17T10:47:31.029Z,102345.19
2022-12-17T10:50:20.299Z,102346.41
2022-12-17T10:53:07.521Z,102346.22
2022-12-17T10:55:54.904Z,102342.19
2022-12-17T10:58:44.471Z,102351.47
2022-12-17T11:01:36.909Z,102346.56
2022-12-17T11:04:40.762Z,102360.66
2022-12-17T11:07:31.155Z,102346.38
2022-12-17T11:10:19.833Z,102356.34
2022-12-17T11:13:10.116Z,102364.53
2022-12-17T11:15:59.684Z,102362.16
2022-12-17T11:18:51.286Z,102363.59
2022-12-17T11:21:41.846Z,102359.03
2022-12-17T11:24:48.063Z,102363.16
2022-12-17T11:27:39.958Z,102347.88
2022-12-17T11:30:39.749Z,102356.59
2022-12-17T11:33:35.125Z,102350.81
2022-12-17T11:36:38.479Z,102342.16
2022-12-17T11:39:42.958Z,102350.38
2022-12-17T11:42:42.639Z,102347.19
2022-12-17T11:45:41.234Z,102350.53
2022-12-17T11:48:34.202Z,102350.16
2022-12-17T11:51:29.527Z,102353.44
2022-12-17T11:54:24.195Z,102357.72
2022-12-17T11:57:15.278Z,102361.38
2022-12-17T12:00:08.544Z,102360.50
2022-12-17T12:03:10.168Z,102361.47
2022-12-17T12:06:05.780Z,102353.75
2022-12-17T12:08:59.377Z,102342.09
2022-12-17T12:11:54.354Z,102337.72
2022-12-17T12:14:53.373Z,102335.50
2022-12-17T12:17:56.313Z,102335.66
2022-12-17T12:20:53.057Z,102336.78
2022-12-17T12:23:56.098Z,102339.53
2022-12-17T12:26:45.664Z,102337.19
2022-12-17T12:29:43.402Z,102332.31
2022-12-17T12:35:48.633Z,102332.72
2022-12-17T12:38:50.866Z,102333.56
2022-12-17T12:41:45.343Z,102336.22
2022-12-17T12:44:39.705Z,102345.56
2022-12-17T12:51:09.998Z,102338.69
2022-12-17T12:53:58.522Z,102334.34
2022-12-17T12:56:47.010Z,102343.03
2022-12-17T12:59:44.353Z,102334.28
2022-12-17T13:02:46.936Z,102333.16
2022-12-17T13:05:33.544Z,102334.16
2022-12-17T13:08:23.969Z,102325.47
2022-12-17T13:10:54.370Z,102335.78
2022-12-17T13:13:36.773Z,102326.06
2022-12-17T13:16:22.871Z,102327.13
2022-12-17T13:19:01.955Z,102317.16
2022-12-17T13:21:32.648Z,102310.28
2022-12-17T13:24:15.492Z,102311.72
2022-12-17T13:26:47.708Z,102308.81
2022-12-17T13:29:25.721Z,102312.53
2022-12-17T13:32:04.896Z,102317.44
2022-12-17T13:34:55.536Z,102313.78
2022-12-17T13:37:34.100Z,102313.19
2022-12-17T13:40:20.759Z,102321.06
2022-12-17T13:42:50.407Z,102313.19
2022-12-17T13:45:22.262Z,102318.00
2022-12-17T13:47:56.268Z,102319.03
2022-12-17T13:50:35.862Z,102314.66
2022-12-17T13:53:12.912Z,102311.53
2022-12-17T13:55:50.774Z,102311.81
2022-12-17T13:58:28.903Z,102309.97
2022-12-17T14:01:09.199Z,102309.78
2022-12-17T14:04:05.040Z,102307.53
2022-12-17T14:06:35.799Z,102316.31
2022-12-17T14:09:05.488Z,102310.59
2022-12-17T14:11:56.381Z,102312.91
2022-12-17T14:14:31.726Z,102313.09
2022-12-17T14:17:04.023Z,102315.72
2022-12-17T14:19:34.849Z,102311.88
2022-12-17T14:22:04.140Z,102313.34
2022-12-17T14:24:32.940Z,102316.28
2022-12-17T14:27:03.338Z,102317.88
2022-12-17T14:29:33.708Z,102311.13
2022-12-17T14:32:22.471Z,102320.13
2022-12-17T14:34:54.615Z,102315.09
2022-12-17T14:37:28.046Z,102319.16
2022-12-17T14:40:01.866Z,102313.88
2022-12-17T14:42:36.365Z,102319.13
2022-12-17T14:45:11.395Z,102319.47
2022-12-17T14:47:40.402Z,102319.16
2022-12-17T14:50:26.483Z,102318.66
2022-12-17T14:52:58.430Z,102323.06
2022-12-17T14:55:34.069Z,102326.41
2022-12-17T14:58:25.241Z,102320.81
2022-12-17T15:00:57.659Z,102321.91
2022-12-17T15:03:29.574Z,102319.28
2022-12-17T15:06:02.364Z,102326.59
2022-12-17T15:08:35.321Z,102321.34
2022-12-17T15:11:05.890Z,102326.31
2022-12-17T15:13:36.090Z,102325.53
2022-12-17T15:16:06.616Z,102320.69
2022-12-17T15:18:35.811Z,102322.41
2022-12-17T15:21:05.840Z,102322.00
2022-12-17T15:23:34.691Z,102318.84
2022-12-17T15:26:04.228Z,102329.03
2022-12-17T15:28:33.563Z,102327.41
2022-12-17T15:31:03.788Z,102331.09
2022-12-17T15:33:32.843Z,102335.97
2022-12-17T15:36:02.027Z,102338.56
2022-12-17T15:38:30.887Z,102344.31
2022-12-17T15:41:22.339Z,102340.88
2022-12-17T15:43:50.316Z,102349.25
2022-12-17T15:46:20.919Z,102348.31
2022-12-17T15:48:50.742Z,102341.41
2022-12-17T15:51:23.795Z,102343.75
2022-12-17T15:53:53.004Z,102342.41
2022-12-17T15:56:24.673Z,102344.97
2022-12-17T15:58:53.429Z,102343.81
2022-12-17T16:01:25.050Z,102349.13
2022-12-17T16:03:54.230Z,102351.66
2022-12-17T16:06:23.296Z,102360.28
2022-12-17T16:08:52.005Z,102354.53
2022-12-17T16:11:22.077Z,102353.25
2022-12-17T16:13:56.613Z,102356.25
2022-12-17T16:16:27.002Z,102352.72
2022-12-17T16:18:56.261Z,102350.81
2022-12-17T16:21:26.029Z,102362.44
2022-12-17T16:23:54.687Z,102360.13
2022-12-17T16:26:23.340Z,102355.16
2022-12-17T16:28:52.131Z,102356.88
2022-12-17T16:31:22.140Z,102366.00
2022-12-17T16:33:52.863Z,102373.00
2022-12-17T16:36:24.073Z,102372.06
2022-12-17T16:38:55.754Z,102369.03
2022-12-17T16:41:24.814Z,102368.88
2022-12-17T16:43:53.503Z,102367.91
2022-12-17T16:46:27.729Z,102368.03
2022-12-17T16:48:59.621Z,102364.03
2022-12-17T16:51:29.808Z,102369.13
2022-12-17T16:54:00.464Z,102367.91
2022-12-17T16:56:38.007Z,102377.84
2022-12-17T16:59:09.528Z,102372.06
2022-12-17T17:01:39.386Z,102371.94
2022-12-17T17:04:11.079Z,102368.94
2022-12-17T17:06:42.090Z,102372.41
2022-12-17T17:09:11.242Z,102375.50
2022-12-17T17:11:43.901Z,102371.41
2022-12-17T17:14:14.647Z,102372.78
2022-12-17T17:16:43.374Z,102370.22
2022-12-17T17:19:15.220Z,102374.38
2022-12-17T17:21:49.931Z,102372.34
2022-12-17T17:24:22.081Z,102374.91
2022-12-17T17:26:52.377Z,102379.66
2022-12-17T17:29:22.565Z,102390.38
2022-12-17T17:34:42.305Z,102399.22
2022-12-17T17:37:11.859Z,102400.94
2022-12-17T17:39:40.799Z,102394.19
2022-12-17T17:42:09.947Z,102385.88
2022-12-17T17:44:39.092Z,102397.03
2022-12-17T17:47:08.036Z,102395.31
2022-12-17T17:49:38.209Z,102391.72
2022-12-17T17:52:10.011Z,102395.16
2022-12-17T17:54:40.439Z,102396.75
2022-12-17T17:57:10.118Z,102394.31
2022-12-17T17:59:39.875Z,102391.84
2022-12-17T18:02:09.948Z,102388.16
2022-12-17T18:04:39.867Z,102392.38
2022-12-17T18:07:27.300Z,102396.31
2022-12-17T18:09:56.791Z,102396.69
2022-12-17T18:12:43.351Z,102395.09
2022-12-17T18:15:14.879Z,102397.81
2022-12-17T18:17:44.536Z,102401.00
2022-12-17T18:20:13.953Z,102407.47
2022-12-17T18:22:46.633Z,102408.31
2022-12-17T18:25:16.285Z,102397.09
2022-12-17T18:27:45.149Z,102399.81
2022-12-17T18:30:16.533Z,102405.78
2022-12-17T18:32:46.955Z,102399.34
2022-12-17T18:35:15.669Z,102403.41
2022-12-17T18:37:45.807Z,102412.69
2022-12-17T18:40:14.525Z,102403.25
2022-12-17T18:43:00.618Z,102403.19
2022-12-17T18:45:30.310Z,102417.59
2022-12-17T18:47:59.115Z,102405.44
2022-12-17T18:50:27.890Z,102407.25
2022-12-17T18:52:58.139Z,102405.53
2022-12-17T18:55:26.889Z,102409.63
2022-12-17T18:57:55.769Z,102420.03
2022-12-17T19:00:24.567Z,102416.72
2022-12-17T19:02:53.561Z,102412.00
2022-12-17T19:05:22.295Z,102419.03
2022-12-17T19:07:51.113Z,102416.72
2022-12-17T19:10:21.519Z,102417.84
2022-12-17T19:12:52.851Z,102415.97
2022-12-17T19:15:21.801Z,102412.66
2022-12-17T19:17:51.212Z,102416.25
2022-12-17T19:20:20.534Z,102420.91
2022-12-17T19:22:49.489Z,102421.69
2022-12-17T19:25:18.421Z,102422.69
2022-12-17T19:27:49.087Z,102421.94
2022-12-17T19:30:18.624Z,102416.38
2022-12-17T19:32:47.454Z,102428.97
2022-12-17T19:35:17.260Z,102422.41
2022-12-17T19:37:47.938Z,102414.78
2022-12-17T19:40:16.839Z,102421.69
2022-12-17T19:42:47.445Z,102419.47
2022-12-17T19:45:16.376Z,102429.50
2022-12-17T19:47:45.269Z,102434.06
2022-12-17T19:50:14.538Z,102432.00
2022-12-17T19:52:43.593Z,102439.16
2022-12-17T19:55:12.865Z,102431.84
2022-12-17T19:57:41.785Z,102434.31
2022-12-17T20:00:15.069Z,102436.91
2022-12-17T20:02:43.897Z,102442.47
2022-12-17T20:05:12.974Z,102450.88
2022-12-17T20:07:41.994Z,102450.03
2022-12-17T20:10:11.320Z,102446.97
2022-12-17T20:12:40.203Z,102452.59
2022-12-17T20:15:09.596Z,102454.72
2022-12-17T20:17:39.848Z,102449.69
2022-12-17T20:20:09.917Z,102446.09
2022-12-17T20:22:38.992Z,102449.78
2022-12-17T20:25:11.441Z,102451.13
2022-12-17T20:27:41.341Z,102441.38
2022-12-17T20:30:11.215Z,102445.25
2022-12-17T20:32:41.502Z,102448.56
2022-12-17T20:35:10.885Z,102446.59
2022-12-17T20:37:39.891Z,102448.88
2022-12-17T20:40:11.124Z,102441.22
2022-12-17T20:42:40.241Z,102446.09
2022-12-17T20:45:10.203Z,102453.16
2022-12-17T20:47:40.517Z,102452.03
2022-12-17T20:50:10.958Z,102448.06
2022-12-17T20:52:40.139Z,102470.41
2022-12-17T20:55:10.174Z,102460.19
2022-12-17T20:57:42.322Z,102476.09
2022-12-17T21:00:12.597Z,102474.31
2022-12-17T21:02:43.437Z,102460.59
2022-12-17T21:05:13.217Z,102464.31
2022-12-17T21:07:42.266Z,102479.34
2022-12-17T21:10:11.364Z,102478.03
2022-12-17T21:12:58.579Z,102471.50
2022-12-17T21:15:29.133Z,102467.91
2022-12-17T21:17:59.694Z,102472.25
2022-12-17T21:20:29.075Z,102460.59
2022-12-17T21:22:58.812Z,102464.56
2022-12-17T21:25:28.127Z,102472.59
2022-12-17T21:27:57.191Z,102473.69
2022-12-17T21:30:26.112Z,102471.69
2022-12-17T21:33:00.615Z,102470.13
2022-12-17T21:35:29.673Z,102461.97
2022-12-17T21:37:59.875Z,102459.88
2022-12-17T21:40:28.792Z,102455.91
2022-12-17T21:43:03.770Z,102456.16
2022-12-17T21:45:38.073Z,102454.56
2022-12-17T21:48:11.865Z,102466.28
2022-12-17T21:50:45.345Z,102461.09
2022-12-17T21:53:15.124Z,102460.22
2022-12-17T21:55:44.304Z,102451.97
2022-12-17T21:58:15.695Z,102464.69
2022-12-17T22:00:44.590Z,102464.69
2022-12-17T22:03:15.723Z,102466.63
2022-12-17T22:05:45.076Z,102459.88
2022-12-17T22:08:13.986Z,102467.53
2022-12-17T22:10:47.215Z,102468.53
2022-12-17T22:13:38.829Z,102481.59
2022-12-17T22:16:08.825Z,102474.06
2022-12-17T22:18:39.478Z,102473.34
2022-12-17T22:21:08.840Z,102476.06
2022-12-17T22:23:37.789Z,102471.59
2022-12-17T22:26:11.260Z,102480.84
2022-12-17T22:28:40.509Z,102487.53
2022-12-17T22:31:30.796Z,102484.06
2022-12-17T22:34:17.864Z,102494.94
2022-12-17T22:37:28.538Z,102489.75
2022-12-17T22:41:11.073Z,102489.88
2022-12-17T22:44:42.775Z,102483.69
2022-12-17T22:45:35.044Z,102485.19
2022-12-17T22:48:03.793Z,102500.13
2022-12-17T22:50:35.936Z,102502.22
2022-12-17T22:53:13.458Z,102499.53
2022-12-17T22:55:42.553Z,102504.34
2022-12-17T22:58:11.826Z,102498.50
2022-12-17T23:00:41.571Z,102515.56
2022-12-17T23:03:10.864Z,102512.97
2022-12-17T23:05:43.066Z,102523.09
2022-12-17T23:08:11.785Z,102528.53
2022-12-17T23:10:40.480Z,102513.44
2022-12-17T23:13:09.430Z,102517.78
2022-12-17T23:15:39.445Z,102515.81
2022-12-17T23:18:09.572Z,102505.06
2022-12-17T23:20:41.032Z,102503.97
2022-12-17T23:23:09.689Z,102509.25
2022-12-17T23:25:38.357Z,102497.78
2022-12-17T23:28:07.645Z,102501.88
2022-12-17T23:30:38.648Z,102502.97
2022-12-17T23:33:07.475Z,102503.19
2022-12-17T23:35:36.974Z,102509.88
2022-12-17T23:38:07.159Z,102502.22
2022-12-17T23:40:35.929Z,102497.41
2022-12-17T23:43:05.050Z,102499.00
2022-12-17T23:45:33.766Z,102504.69
2022-12-17T23:48:02.813Z,102494.31
2022-12-17T23:50:31.567Z,102491.13
2022-12-17T23:53:00.273Z,102501.13
2022-12-17T23:55:30.513Z,102490.84
2022-12-17T23:58:01.200Z,102492.84
